Skip Navigation Links
NOAA logo - Click to go to the NOAA homepage
NOAA's National Weather Service
Alaska Aviation Weather Unit
  NWS logo - Click to go to the NWS homepage
Left Navbar Graphic     12 AKDT = 20 GMT

   
NOAA is celebrating 200 years of science, service, and stewardship. Visit the NOAA 200th celebration Web site to learn more.
USA.gov is the U.S. Government's official Web portal to all Federal, state and local government Web resources and services.
Facebook
NWS on Facebook

Important Change Regarding the AAWU Web Presence

 

Over the last several months, the AAWU has been working to navigate its webpages to a nationally supported server. Security, as well as other needs, have necessitated the change.  We have been given an extension for the site changeover while we diligently work at addressing feedback received. As of July 14, 2017, aawu.arh.noaa.gov will be discontinued. The new AAWU web address is weather.gov/aawu. It is now live and will run in-parallel with the old site until it is discontinued on July 14, 2017. Please continue to send any feedback or questions regarding the new webpages to nws.ar.aawu.webauthors@noaa.gov.  Thank you for your patience during this time of transition.
AAWU Home :: Display TAF Add Bookmark
SPECI PATG 251408Z AUTO 19009KT 2 1/2SM BR BKN008 OVC014 12/11 A2997
 RMK AO2 VIS 1 1/2V5 RAE05 CIG 005V009 P0000=

SPECI PATG 251453Z AUTO 18010KT 2SM BR BKN006 BKN010 OVC016 12/11 A2997
     RMK AO2 VIS 1 1/2V3 RAE05 P0000=

METAR PATG 251456Z AUTO 19009KT 2 1/2SM BR BKN006 BKN010 OVC016
 12/11 A2997 RMK AO2 VIS 2V4 RAE05 SLP242 P0000 60000 T01170111
 55003=

METAR PATG 251556Z AUTO 26004KT 1 3/4SM BR BKN007 OVC013 11/11 A2997
 RMK AO2 RAB37E47 CIG 003V010 SLP242 P0000 T01060106=

SPECI PATG 251622Z AUTO 00000KT 2SM BR SCT007 OVC011 11/11 A2996 RMK
 AO2=

SPECI PATG 251627Z AUTO 00000KT 3SM BR BKN007 OVC011 11/11 A2996 RMK AO2
     CIG 005V011=

METAR PATG 251656Z AUTO 00000KT 10SM BKN005 OVC019 12/11 A2996 RMK AO2
     SLP240 T01170111=

SPECI PATG 251710Z AUTO 23003KT 9SM SCT005 OVC011 12/11 A2996 RMK
     AO2=

METAR PATG 251756Z AUTO 21003KT 7SM FEW009 BKN016 OVC027 12/11 A2996 RMK
     AO2 SLP239 60000 T01170111 10122 20106 56004=

SPECI PATG 251848Z AUTO 19003KT 2SM BR BKN005 BKN010 OVC015 12/11 A2996
     RMK AO2 CIG 003V007=

SPECI PATG 251852Z AUTO 18003KT 3SM BR SCT005 BKN010 OVC035 12/11 A2996
     RMK AO2=

METAR PATG 251856Z AUTO 18003KT 10SM SCT005 BKN010 OVC035 12/11 A2995
     RMK AO2 SLP238 T01170111=

SPECI PATG 251916Z AUTO 20004KT 10SM FEW007 BKN029 OVC037 12/11 A2995
     RMK AO2=

SPECI PATG 251949Z AUTO 19005KT 10SM SCT026 OVC036 13/11 A2995 RMK
     AO2=

METAR PATG 251956Z AUTO 20005KT 10SM FEW026 OVC036 13/11 A2995 RMK AO2
     SLP237 T01280111=

SPECI PATG 252020Z AUTO 19005KT 10SM BKN022 BKN029 OVC034 13/11
 A2995 RMK AO2=


NOAA's National Weather Service
Alaska Aviation Weather Unit
6930 Sand Lake Road
Anchorage, AK 99502-1845
Disclaimer
Credits
Glossary
Privacy Policy
About Us
Career Opportunities
Contact AAWU Internet Services Site last modified: April, 17th 2012